Map

Track Data

SID SEASON NUMBER BASIN SUBBASIN NAME ISO_TIME NATURE LAT LON WMO_WIND WMO_PRES WMO_AGENCY TRACK_TYPE DIST2LAND LANDFALL IFLAG USA_AGENCY USA_ATCF_ID USA_LAT USA_LON USA_RECORD USA_STATUS USA_WIND USA_PRES USA_SSHS USA_R34_NE USA_R34_SE USA_R34_SW USA_R34_NW USA_R50_NE USA_R50_SE USA_R50_SW USA_R50_NW USA_R64_NE USA_R64_SE USA_R64_SW USA_R64_NW USA_POCI USA_ROCI USA_RMW USA_EYE TOKYO_LAT TOKYO_LON TOKYO_GRADE TOKYO_WIND TOKYO_PRES TOKYO_R50_DIR TOKYO_R50_LONG TOKYO_R50_SHORT TOKYO_R30_DIR TOKYO_R30_LONG TOKYO_R30_SHORT TOKYO_LAND CMA_LAT CMA_LON CMA_CAT CMA_WIND CMA_PRES HKO_LAT HKO_LON HKO_CAT HKO_WIND HKO_PRES NEWDELHI_LAT NEWDELHI_LON NEWDELHI_GRADE NEWDELHI_WIND NEWDELHI_PRES NEWDELHI_CI NEWDELHI_DP NEWDELHI_POCI REUNION_LAT REUNION_LON REUNION_TYPE REUNION_WIND REUNION_PRES REUNION_TNUM REUNION_CI REUNION_RMW REUNION_R34_NE REUNION_R34_SE REUNION_R34_SW REUNION_R34_NW REUNION_R50_NE REUNION_R50_SE REUNION_R50_SW REUNION_R50_NW REUNION_R64_NE REUNION_R64_SE REUNION_R64_SW REUNION_R64_NW BOM_LAT BOM_LON BOM_TYPE BOM_WIND BOM_PRES BOM_TNUM BOM_CI BOM_RMW BOM_R34_NE BOM_R34_SE BOM_R34_SW BOM_R34_NW BOM_R50_NE BOM_R50_SE BOM_R50_SW BOM_R50_NW BOM_R64_NE BOM_R64_SE BOM_R64_SW BOM_R64_NW BOM_ROCI BOM_POCI BOM_EYE BOM_POS_METHOD BOM_PRES_METHOD NADI_LAT NADI_LON NADI_CAT NADI_WIND NADI_PRES WELLINGTON_LAT WELLINGTON_LON WELLINGTON_WIND WELLINGTON_PRES DS824_LAT DS824_LON DS824_STAGE DS824_WIND DS824_PRES TD9636_LAT TD9636_LON TD9636_STAGE TD9636_WIND TD9636_PRES TD9635_LAT TD9635_LON TD9635_WIND TD9635_PRES TD9635_ROCI NEUMANN_LAT NEUMANN_LON NEUMANN_CLASS NEUMANN_WIND NEUMANN_PRES MLC_LAT MLC_LON MLC_CLASS MLC_WIND MLC_PRES USA_GUST BOM_GUST BOM_GUST_PER REUNION_GUST REUNION_GUST_PER USA_SEAHGT USA_SEARAD_NE USA_SEARAD_SE USA_SEARAD_SW USA_SEARAD_NW STORM_SPEED STORM_DIR
1952074S15056 1952 21 SI MM NOT_NAMED 1952-03-14 06:00:00 NR -15.1000 55.9000 reunion main 579 558 _____O________ -1 -15.1000 55.9000 99 9.90000 5 231
1952074S15056 1952 21 SI MM NOT_NAMED 1952-03-14 09:00:00 NR -15.2459 55.7114 main 558 525 _____P________ -1 -15.2459 55.7114 99 6 230
1952074S15056 1952 21 SI MM NOT_NAMED 1952-03-14 12:00:00 TS -15.4960 55.4102 main 525 494 O____P___OO___ jtwc_sh SH191952 -15.6000 55.3000 -1 -15.3921 55.5203 99 -15.6000 55.3000 TC -15.6000 55.3000 7 7 233
1952074S15056 1952 21 SI MM NOT_NAMED 1952-03-14 15:00:00 TS -15.6660 55.1282 main 494 473 P____P___PP___ SH191952 -15.7376 54.9901 -1 -15.5390 55.3247 99 -15.7376 54.9901 TC -15.7769 55.0114 7 7 238
1952074S15056 1952 21 SI MM NOT_NAMED 1952-03-14 18:00:00 TS -15.8467 54.8364 main 462 444 O____P___OP___ jtwc_sh SH191952 -15.9000 54.7000 -1 -15.6871 55.1222 99 -15.9000 54.7000 TC -15.9529 54.7280 7 7 235
1952074S15056 1952 21 SI MM NOT_NAMED 1952-03-14 21:00:00 TS -16.0410 54.5628 main 444 416 P____P___PP___ SH191952 -16.0999 54.4425 -1 -15.8369 54.9107 99 -16.0999 54.4425 TC -16.1274 54.4556 7 6 233
1952074S15056 1952 21 SI MM NOT_NAMED 1952-03-15 00:00:00 TS -16.2222 54.3220 main 416 398 O____P___OO___ jtwc_sh SH191952 -16.3000 54.2000 -1 -15.9886 54.6880 99 -16.3000 54.2000 TC 25 -16.3000 54.2000 7 6 234
1952074S15056 1952 21 SI MM NOT_NAMED 1952-03-15 03:00:00 TS -16.3784 54.0753 main 401 373 P____P___PP___ SH191952 -16.4500 53.9424 -1 -16.1429 54.4519 99 -16.4500 53.9424 TC 25 -16.4707 53.9644 7 6 236
1952074S15056 1952 21 SI MM NOT_NAMED 1952-03-15 06:00:00 TS -16.5356 53.8355 reunion main 373 361 O____O___OP___ jtwc_sh SH191952 -16.6000 53.7000 -1 -16.3000 54.2000 99 9.90000 -16.6000 53.7000 TC 25 -16.6422 53.7422 7 6 232
1952074S15056 1952 21 SI MM NOT_NAMED 1952-03-15 09:00:00 TS -16.7195 53.6139 main 361 351 P____P___PP___ SH191952 -16.7999 53.5000 -1 -16.4605 53.9320 99 -16.7999 53.5000 TC 25 -16.8176 53.5238 7 6 229
1952074S15056 1952 21 SI MM NOT_NAMED 1952-03-15 12:00:00 TS -16.9064 53.3887 main 351 332 O____P___OO___ jtwc_sh SH191952 -17.0000 53.3000 -1 -16.6258 53.6550 99 -17.0000 53.3000 TC 25 -17.0000 53.3000 7 6 233
1952074S15056 1952 21 SI MM NOT_NAMED 1952-03-15 15:00:00 TS -17.0657 53.1323 main 332 317 P____P___PP___ SH191952 -17.1425 53.0574 -1 -16.7971 53.3777 99 -17.1425 53.0574 TC 25 -17.1807 53.0369 7 6 236
1952074S15056 1952 21 SI MM NOT_NAMED 1952-03-15 18:00:00 TS -17.2366 52.8698 main 317 299 O____P___OP___ jtwc_sh SH191952 -17.3000 52.8000 -1 -16.9761 53.1091 99 -17.3000 52.8000 TC 25 -17.3702 52.7700 7 6 232
1952074S15056 1952 21 SI MM NOT_NAMED 1952-03-15 21:00:00 TS -17.4522 52.6153 main 305 290 P____P___PP___ SH191952 -17.5350 52.5425 -1 -17.1643 52.8580 99 -17.5350 52.5425 TC 25 -17.5745 52.5181 7 7 226
1952074S15056 1952 21 SI MM NOT_NAMED 1952-03-16 00:00:00 TS -17.6908 52.3834 main 293 278 O____P___OO___ jtwc_sh SH191952 -17.8000 52.3000 -1 -17.3633 52.6335 99 -17.8000 52.3000 TC 25 -17.8000 52.3000 7 6 222
1952074S15056 1952 21 SI MM NOT_NAMED 1952-03-16 03:00:00 TS -17.9282 52.1698 main 282 268 P____P___PP___ SH191952 -18.0425 52.0700 -1 -17.5746 52.4445 99 -18.0425 52.0700 TC 25 -18.0533 52.0946 7 6 216
1952074S15056 1952 21 SI MM NOT_NAMED 1952-03-16 06:00:00 TS -18.1818 52.0076 reunion main 270 262 O____O___OP___ jtwc_sh SH191952 -18.3000 51.9000 -1 -17.8000 52.3000 99 9.90000 -18.3000 51.9000 TC 25 -18.3273 51.9305 7 6 205
1952074S15056 1952 21 SI MM NOT_NAMED 1952-03-16 09:00:00 TS -18.4636 51.9086 main 266 266 P____P___PP___ SH191952 -18.6000 51.8050 -1 -18.0419 52.1985 99 -18.6000 51.8050 TC 25 -18.6127 51.8260 7 6 192
1952074S15056 1952 21 SI MM NOT_NAMED 1952-03-16 12:00:00 TS -18.7497 51.8845 main 269 269 O____P___OO___ jtwc_sh SH191952 -18.9000 51.8000 -1 -18.2986 52.1381 99 -18.9000 51.8000 TC 25 -18.9000 51.8000 7 6 0
1952074S15056 1952 21 SI MM NOT_NAMED 1952-03-16 15:00:00 TS -19.0106 51.9249 main 278 278 P____P___PP___ SH191952 -19.1500 51.8625 -1 -18.5676 52.1161 99 -19.1500 51.8625 TC 25 -19.1749 51.8584 7 5 165
1952074S15056 1952 21 SI MM NOT_NAMED 1952-03-16 18:00:00 TS -19.2740 52.0312 main 300 300 O____P___OP___ jtwc_sh SH191952 -19.4000 52.0000 -1 -18.8461 52.1303 99 -19.4000 52.0000 TC 25 -19.4499 51.9946 7 6 156
1952074S15056 1952 21 SI MM NOT_NAMED 1952-03-16 21:00:00 TS -19.5641 52.1829 main 330 325 P____P___PP___ SH191952 -19.7000 52.1849 -1 -19.1314 52.1782 99 -19.7000 52.1849 TC 25 -19.7250 52.1836 7 7 152
1952074S15056 1952 21 SI MM NOT_NAMED 1952-03-17 00:00:00 TS -19.8552 52.3644 main 320 302 O____P___OO___ jtwc_sh SH191952 -20.0000 52.4000 -1 -19.4206 52.2574 99 -20.0000 52.4000 TC 25 -20.0000 52.4000 7 7 149
1952074S15056 1952 21 SI MM NOT_NAMED 1952-03-17 03:00:00 TS -20.1215 52.5386 main 302 271 P____P___PP___ SH191952 -20.2499 52.5927 -1 -19.7111 52.3655 99 -20.2499 52.5927 TC 25 -20.2750 52.6035 7 6 147
1952074S15056 1952 21 SI MM NOT_NAMED 1952-03-17 06:00:00 TS -20.3875 52.7319 reunion main 271 243 O____O___OP___ jtwc_sh SH191952 -20.5000 52.8000 -1 -20.0000 52.5000 99 9.90000 -20.5000 52.8000 TC 25 -20.5500 52.8276 7 7 145
1952074S15056 1952 21 SI MM NOT_NAMED 1952-03-17 09:00:00 TS -20.6733 52.9587 main 232 208 P____P___PP___ SH191952 -20.8000 53.0499 -1 -20.2680 52.6721 99 -20.8000 53.0499 TC 25 -20.8250 53.0629 7 7 143
1952074S15056 1952 21 SI MM NOT_NAMED 1952-03-17 12:00:00 TS -20.9588 53.1949 main 207 186 O____P___OO___ jtwc_sh SH191952 -21.1000 53.3000 -1 -20.5351 52.8797 99 -21.1000 53.3000 TC 25 -21.1000 53.3000 7 7 142
1952074S15056 1952 21 SI MM NOT_NAMED 1952-03-17 15:00:00 TS -21.2194 53.4111 main 186 169 P____P___PP___ SH191952 -21.3499 53.5002 -1 -20.8026 53.1109 99 -21.3499 53.5002 TC 25 -21.3750 53.5333 7 7 142
1952074S15056 1952 21 SI MM NOT_NAMED 1952-03-17 18:00:00 TS -21.4805 53.6297 main 171 155 O____P___OP___ jtwc_sh SH191952 -21.6000 53.7000 -1 -21.0720 53.3538 99 -21.6000 53.7000 TC 25 -21.6500 53.7652 7 7 142
1952074S15056 1952 21 SI MM NOT_NAMED 1952-03-17 21:00:00 TS -21.7675 53.8714 main 155 146 P____P___PP___ SH191952 -21.9000 53.9499 -1 -21.3449 53.5964 99 -21.9000 53.9499 TC 25 -21.9250 53.9895 7 7 142
1952074S15056 1952 21 SI MM NOT_NAMED 1952-03-18 00:00:00 TS -22.0557 54.1066 main 152 144 O____P___OO___ jtwc_sh SH191952 -22.2000 54.2000 -1 -21.6227 53.8264 99 -22.2000 54.2000 TC 25 -22.2000 54.2000 7 7 142
1952074S15056 1952 21 SI MM NOT_NAMED 1952-03-18 03:00:00 TS -22.3144 54.3259 main 152 152 P____P___PP___ SH191952 -22.4500 54.4151 -1 -21.9072 54.0317 99 -22.4500 54.4151 TC 25 -22.4507 54.4417 7 6 144
1952074S15056 1952 21 SI MM NOT_NAMED 1952-03-18 06:00:00 TS -22.5763 54.5154 reunion main 167 162 O____O___OP___ jtwc_sh SH191952 -22.7000 54.6000 -1 -22.2000 54.2000 99 9.90000 -22.7000 54.6000 TC 25 -22.7050 54.6616 7 6 150
1952074S15056 1952 21 SI MM NOT_NAMED 1952-03-18 09:00:00 TS -22.8716 54.6777 main 189 189 P____P___PP___ SH191952 -22.9850 54.7874 -1 -22.5345 54.3105 99 -22.9850 54.7874 TC 25 -22.9819 54.8257 7 7 159
1952074S15056 1952 21 SI MM NOT_NAMED 1952-03-18 12:00:00 TS -23.1953 54.7725 main 217 217 O____P___OO___ jtwc_sh SH191952 -23.3000 54.9000 -1 -22.8812 54.3898 99 -23.3000 54.9000 TC 25 -23.3000 54.9000 7 7 172
1952074S15056 1952 21 SI MM NOT_NAMED 1952-03-18 15:00:00 TS -23.5363 54.7800 main 248 248 P____P___PP___ SH191952 -23.6199 54.9098 -1 -23.2326 54.4396 99 -23.6199 54.9098 TC 25 -23.6726 54.8607 7 7 187
1952074S15056 1952 21 SI MM NOT_NAMED 1952-03-18 18:00:00 TS -23.8920 54.6790 main 294 294 O____P___OP___ jtwc_sh SH191952 -24.0000 54.8000 -1 -23.5813 54.4613 99 -24.0000 54.8000 TC 25 -24.0903 54.7273 7 8 198
1952074S15056 1952 21 SI MM NOT_NAMED 1952-03-18 21:00:00 TS -24.2646 54.5209 main 343 343 P____P___PP___ SH191952 -24.4727 54.5806 -1 -23.9198 54.4566 99 -24.4727 54.5806 TC 25 -24.5379 54.5302 7 7 202
1952074S15056 1952 21 SI MM NOT_NAMED 1952-03-19 00:00:00 TS -24.5662 54.3726 main 378 367 O____P___OO___ jtwc_sh SH191952 -25.0000 54.3000 -1 -24.2408 54.4270 99 -25.0000 54.3000 TC 25 -25.0000 54.3000 7 3 205
1952074S15056 1952 21 SI MM NOT_NAMED 1952-03-19 03:00:00 NR -24.5367 54.3743 main 367 367 _____P________ SH191952 -1 -24.5367 54.3743 99 TC 7 2 197
1952074S15056 1952 21 SI MM NOT_NAMED 1952-03-19 06:00:00 NR -24.8000 54.3000 reunion main 402 402 _____O________ -1 -24.8000 54.3000 99 9.90000 7 5 198
1952074S15056 1952 21 SI MM NOT_NAMED 1952-03-19 09:00:00 NR -25.0254 54.2061 main 427 427 _____P________ -1 -25.0254 54.2061 99 7 5 204
1952074S15056 1952 21 SI MM NOT_NAMED 1952-03-19 12:00:00 NR -25.2157 54.0948 main 451 451 _____P________ -1 -25.2157 54.0948 99 4 212
1952074S15056 1952 21 SI MM NOT_NAMED 1952-03-19 15:00:00 NR -25.3760 53.9686 main 475 475 _____P________ -1 -25.3760 53.9686 99 4 219
1952074S15056 1952 21 SI MM NOT_NAMED 1952-03-19 18:00:00 NR -25.5111 53.8300 main 493 493 _____P________ -1 -25.5111 53.8300 99 4 226
1952074S15056 1952 21 SI MM NOT_NAMED 1952-03-19 21:00:00 NR -25.6261 53.6814 main 507 507 _____P________ -1 -25.6261 53.6814 99 3 232
1952074S15056 1952 21 SI MM NOT_NAMED 1952-03-20 00:00:00 NR -25.7259 53.5252 main 524 524 _____P________ -1 -25.7259 53.5252 99 3 236
1952074S15056 1952 21 SI MM NOT_NAMED 1952-03-20 03:00:00 NR -25.8155 53.3639 main 538 538 _____P________ -1 -25.8155 53.3639 99 3 239
1952074S15056 1952 21 SI MM NOT_NAMED 1952-03-20 06:00:00 NR -25.9000 53.2000 reunion main 556 _____O________ -1 -25.9000 53.2000 99 9.90000 3 241

About IBTrACS Database

This database is a web-friendly format of International Best Track Archive for Climate Stewardship (IBTrACS), a global best track data archive curated by NOAA dating back to 1842.

Updated: 2021-12-03